PCW weather

Carl R Keller Field
Port Clinton, Ohio, United States

Public forecast

Using degrees Fahrenheit for public forecast. Weather courtesy of forecast.io.

Current aviation weather report (METAR) for Carl R Keller Field

Retrieved 2019/10/17 13:35 UTC (23 minutes ago):

KPCW 171335Z AUTO 32013G22KT 10SM OVC025 08/03 A2987 RMK AO2

Closest aviation forecast (TAF) to Carl R Keller Field

Closest forecast is Toledo Express Airport, 42.4 nm (78.5 km) W. Retrieved 2019/10/17 12:40 UTC (1 hour ago):

TAF KTOL 171138Z 1712/1812 30012KT P6SM SCT040 FM171600 30013KT P6SM BKN040 FM180600 31014KT P6SM SCT045